sensor_id;sensor_type;location;lat;lon;timestamp;P1;durP1;ratioP1;P2;durP2;ratioP2
68910;SDS011;55953;51.650;-0.522;2023-05-10T00:00:05;7.10;;;3.10;;
68910;SDS011;55953;51.650;-0.522;2023-05-10T00:02:59;3.40;;;2.10;;
68910;SDS011;55953;51.650;-0.522;2023-05-10T00:05:27;4.40;;;2.30;;
68910;SDS011;55953;51.650;-0.522;2023-05-10T00:07:55;5.00;;;2.50;;
68910;SDS011;55953;51.650;-0.522;2023-05-10T00:10:23;6.40;;;2.50;;
68910;SDS011;55953;51.650;-0.522;2023-05-10T00:12:51;5.20;;;2.10;;
68910;SDS011;55953;51.650;-0.522;2023-05-10T00:15:19;5.10;;;2.50;;
68910;SDS011;55953;51.650;-0.522;2023-05-10T00:17:47;5.80;;;2.60;;
68910;SDS011;55953;51.650;-0.522;2023-05-10T00:20:14;5.80;;;2.40;;
68910;SDS011;55953;51.650;-0.522;2023-05-10T00:22:43;6.50;;;2.70;;
68910;SDS011;55953;51.650;-0.522;2023-05-10T00:25:11;7.00;;;2.70;;
68910;SDS011;55953;51.650;-0.522;2023-05-10T00:27:39;6.80;;;3.20;;
68910;SDS011;55953;51.650;-0.522;2023-05-10T00:30:07;5.30;;;3.30;;
68910;SDS011;55953;51.650;-0.522;2023-05-10T00:32:35;6.40;;;2.80;;
68910;SDS011;55953;51.650;-0.522;2023-05-10T00:35:03;6.20;;;2.60;;
68910;SDS011;55953;51.650;-0.522;2023-05-10T00:37:31;7.50;;;2.90;;
68910;SDS011;55953;51.650;-0.522;2023-05-10T00:39:59;7.20;;;3.00;;
68910;SDS011;55953;51.650;-0.522;2023-05-10T00:42:27;7.20;;;2.90;;
68910;SDS011;55953;51.650;-0.522;2023-05-10T00:44:55;6.30;;;2.90;;
68910;SDS011;55953;51.650;-0.522;2023-05-10T00:47:23;5.20;;;2.70;;
68910;SDS011;55953;51.650;-0.522;2023-05-10T00:49:51;8.30;;;2.80;;
68910;SDS011;55953;51.650;-0.522;2023-05-10T00:52:19;5.70;;;3.00;;
68910;SDS011;55953;51.650;-0.522;2023-05-10T00:54:47;10.00;;;3.20;;
68910;SDS011;55953;51.650;-0.522;2023-05-10T00:57:16;6.60;;;3.00;;
68910;SDS011;55953;51.650;-0.522;2023-05-10T00:59:44;7.40;;;3.20;;
68910;SDS011;55953;51.650;-0.522;2023-05-10T01:02:13;6.90;;;3.00;;
68910;SDS011;55953;51.650;-0.522;2023-05-10T01:04:42;6.20;;;3.30;;
68910;SDS011;55953;51.650;-0.522;2023-05-10T01:07:11;6.60;;;3.20;;
68910;SDS011;55953;51.650;-0.522;2023-05-10T01:09:38;6.10;;;3.10;;
68910;SDS011;55953;51.650;-0.522;2023-05-10T01:12:07;7.20;;;3.20;;
68910;SDS011;55953;51.650;-0.522;2023-05-10T01:17:07;8.00;;;3.20;;
68910;SDS011;55953;51.650;-0.522;2023-05-10T01:19:36;6.90;;;3.10;;
68910;SDS011;55953;51.650;-0.522;2023-05-10T01:22:36;5.80;;;3.20;;
68910;SDS011;55953;51.650;-0.522;2023-05-10T01:25:36;4.90;;;2.90;;
68910;SDS011;55953;51.650;-0.522;2023-05-10T01:34:25;6.60;;;3.00;;
68910;SDS011;55953;51.650;-0.522;2023-05-10T01:37:09;5.70;;;2.90;;
68910;SDS011;55953;51.650;-0.522;2023-05-10T01:39:47;6.30;;;3.00;;
68910;SDS011;55953;51.650;-0.522;2023-05-10T01:42:28;6.30;;;3.50;;
68910;SDS011;55953;51.650;-0.522;2023-05-10T01:45:14;8.50;;;3.00;;
68910;SDS011;55953;51.650;-0.522;2023-05-10T01:48:02;6.10;;;3.30;;
68910;SDS011;55953;51.650;-0.522;2023-05-10T01:50:36;5.00;;;2.50;;
68910;SDS011;55953;51.650;-0.522;2023-05-10T01:53:07;5.80;;;2.80;;
68910;SDS011;55953;51.650;-0.522;2023-05-10T01:55:46;7.20;;;3.10;;
68910;SDS011;55953;51.650;-0.522;2023-05-10T01:58:36;8.50;;;3.20;;
68910;SDS011;55953;51.650;-0.522;2023-05-10T02:03:38;7.80;;;3.70;;
68910;SDS011;55953;51.650;-0.522;2023-05-10T02:08:39;7.80;;;3.20;;
68910;SDS011;55953;51.650;-0.522;2023-05-10T02:11:10;6.10;;;3.00;;
68910;SDS011;55953;51.650;-0.522;2023-05-10T02:13:40;4.90;;;2.60;;
68910;SDS011;55953;51.650;-0.522;2023-05-10T02:16:12;6.80;;;3.10;;
68910;SDS011;55953;51.650;-0.522;2023-05-10T02:18:41;4.60;;;2.60;;
68910;SDS011;55953;51.650;-0.522;2023-05-10T02:21:10;5.20;;;2.60;;
68910;SDS011;55953;51.650;-0.522;2023-05-10T02:23:40;6.30;;;3.20;;
68910;SDS011;55953;51.650;-0.522;2023-05-10T02:26:10;6.40;;;3.00;;
68910;SDS011;55953;51.650;-0.522;2023-05-10T02:28:42;11.60;;;3.30;;
68910;SDS011;55953;51.650;-0.522;2023-05-10T02:31:11;7.80;;;3.60;;
68910;SDS011;55953;51.650;-0.522;2023-05-10T02:33:40;8.50;;;3.30;;
68910;SDS011;55953;51.650;-0.522;2023-05-10T02:36:09;8.30;;;3.40;;
68910;SDS011;55953;51.650;-0.522;2023-05-10T02:38:38;5.70;;;3.00;;
68910;SDS011;55953;51.650;-0.522;2023-05-10T02:41:08;6.20;;;2.90;;
68910;SDS011;55953;51.650;-0.522;2023-05-10T02:43:39;9.10;;;3.30;;
68910;SDS011;55953;51.650;-0.522;2023-05-10T02:46:08;6.90;;;3.40;;
68910;SDS011;55953;51.650;-0.522;2023-05-10T02:48:36;6.70;;;3.10;;
68910;SDS011;55953;51.650;-0.522;2023-05-10T02:51:07;7.60;;;3.40;;
68910;SDS011;55953;51.650;-0.522;2023-05-10T02:53:38;4.70;;;2.80;;
68910;SDS011;55953;51.650;-0.522;2023-05-10T02:56:20;7.60;;;3.00;;
68910;SDS011;55953;51.650;-0.522;2023-05-10T02:58:53;6.70;;;2.90;;
68910;SDS011;55953;51.650;-0.522;2023-05-10T03:01:21;9.20;;;3.10;;
68910;SDS011;55953;51.650;-0.522;2023-05-10T03:03:49;6.20;;;2.80;;
68910;SDS011;55953;51.650;-0.522;2023-05-10T03:06:16;6.60;;;2.80;;
68910;SDS011;55953;51.650;-0.522;2023-05-10T03:08:44;8.20;;;3.20;;
68910;SDS011;55953;51.650;-0.522;2023-05-10T03:12:03;8.50;;;3.00;;
68910;SDS011;55953;51.650;-0.522;2023-05-10T03:14:49;6.20;;;2.70;;
68910;SDS011;55953;51.650;-0.522;2023-05-10T03:17:30;8.60;;;2.80;;
68910;SDS011;55953;51.650;-0.522;2023-05-10T03:20:06;6.90;;;2.60;;
68910;SDS011;55953;51.650;-0.522;2023-05-10T03:22:47;7.10;;;2.70;;
68910;SDS011;55953;51.650;-0.522;2023-05-10T03:25:18;6.20;;;2.90;;
68910;SDS011;55953;51.650;-0.522;2023-05-10T03:27:48;6.50;;;2.80;;
68910;SDS011;55953;51.650;-0.522;2023-05-10T03:30:18;6.10;;;2.90;;
68910;SDS011;55953;51.650;-0.522;2023-05-10T03:32:46;5.60;;;2.60;;
68910;SDS011;55953;51.650;-0.522;2023-05-10T03:35:16;7.70;;;3.00;;
68910;SDS011;55953;51.650;-0.522;2023-05-10T03:37:44;8.90;;;3.30;;
68910;SDS011;55953;51.650;-0.522;2023-05-10T03:40:11;4.80;;;2.60;;
68910;SDS011;55953;51.650;-0.522;2023-05-10T03:42:41;11.00;;;3.40;;
68910;SDS011;55953;51.650;-0.522;2023-05-10T03:45:09;8.60;;;2.70;;
68910;SDS011;55953;51.650;-0.522;2023-05-10T03:47:37;9.30;;;2.80;;
68910;SDS011;55953;51.650;-0.522;2023-05-10T03:50:05;7.80;;;2.90;;
68910;SDS011;55953;51.650;-0.522;2023-05-10T03:52:34;9.10;;;3.30;;
68910;SDS011;55953;51.650;-0.522;2023-05-10T03:55:02;7.10;;;2.90;;
68910;SDS011;55953;51.650;-0.522;2023-05-10T03:57:31;9.90;;;3.10;;
68910;SDS011;55953;51.650;-0.522;2023-05-10T04:00:00;12.20;;;3.40;;
68910;SDS011;55953;51.650;-0.522;2023-05-10T04:02:28;11.70;;;3.50;;
68910;SDS011;55953;51.650;-0.522;2023-05-10T04:04:57;10.90;;;3.40;;
68910;SDS011;55953;51.650;-0.522;2023-05-10T04:07:25;11.70;;;3.50;;
68910;SDS011;55953;51.650;-0.522;2023-05-10T04:09:53;10.50;;;3.50;;
68910;SDS011;55953;51.650;-0.522;2023-05-10T04:12:22;9.60;;;3.80;;
68910;SDS011;55953;51.650;-0.522;2023-05-10T04:14:50;8.60;;;4.00;;
68910;SDS011;55953;51.650;-0.522;2023-05-10T04:17:19;11.30;;;3.40;;
68910;SDS011;55953;51.650;-0.522;2023-05-10T04:19:47;10.30;;;3.50;;
68910;SDS011;55953;51.650;-0.522;2023-05-10T04:22:15;6.20;;;3.20;;
68910;SDS011;55953;51.650;-0.522;2023-05-10T04:24:43;7.30;;;3.00;;
68910;SDS011;55953;51.650;-0.522;2023-05-10T04:27:11;8.20;;;3.00;;
68910;SDS011;55953;51.650;-0.522;2023-05-10T04:29:39;11.60;;;4.00;;
68910;SDS011;55953;51.650;-0.522;2023-05-10T04:32:07;7.70;;;3.20;;
68910;SDS011;55953;51.650;-0.522;2023-05-10T04:34:36;7.50;;;3.60;;
68910;SDS011;55953;51.650;-0.522;2023-05-10T04:37:04;9.10;;;3.40;;
68910;SDS011;55953;51.650;-0.522;2023-05-10T04:39:33;11.10;;;3.40;;
68910;SDS011;55953;51.650;-0.522;2023-05-10T04:42:02;9.00;;;4.00;;
68910;SDS011;55953;51.650;-0.522;2023-05-10T04:44:31;9.10;;;3.80;;
68910;SDS011;55953;51.650;-0.522;2023-05-10T04:47:01;10.00;;;4.00;;
68910;SDS011;55953;51.650;-0.522;2023-05-10T04:49:30;10.00;;;4.00;;
68910;SDS011;55953;51.650;-0.522;2023-05-10T04:51:58;7.00;;;3.50;;
68910;SDS011;55953;51.650;-0.522;2023-05-10T04:54:26;9.10;;;3.80;;
68910;SDS011;55953;51.650;-0.522;2023-05-10T04:56:53;9.10;;;3.90;;
68910;SDS011;55953;51.650;-0.522;2023-05-10T04:59:21;12.90;;;4.30;;
68910;SDS011;55953;51.650;-0.522;2023-05-10T05:01:49;9.50;;;4.40;;
68910;SDS011;55953;51.650;-0.522;2023-05-10T05:04:17;12.10;;;4.10;;
68910;SDS011;55953;51.650;-0.522;2023-05-10T05:06:45;10.00;;;4.70;;
68910;SDS011;55953;51.650;-0.522;2023-05-10T05:09:12;10.70;;;4.70;;
68910;SDS011;55953;51.650;-0.522;2023-05-10T05:11:40;10.10;;;4.80;;
68910;SDS011;55953;51.650;-0.522;2023-05-10T05:14:08;10.80;;;5.00;;
68910;SDS011;55953;51.650;-0.522;2023-05-10T05:16:36;9.20;;;4.50;;
68910;SDS011;55953;51.650;-0.522;2023-05-10T05:19:04;9.20;;;4.90;;
68910;SDS011;55953;51.650;-0.522;2023-05-10T05:21:32;9.60;;;5.00;;
68910;SDS011;55953;51.650;-0.522;2023-05-10T05:24:00;9.90;;;4.30;;
68910;SDS011;55953;51.650;-0.522;2023-05-10T05:26:28;13.60;;;5.00;;
68910;SDS011;55953;51.650;-0.522;2023-05-10T05:28:56;8.50;;;4.50;;
68910;SDS011;55953;51.650;-0.522;2023-05-10T05:31:24;12.00;;;4.90;;
68910;SDS011;55953;51.650;-0.522;2023-05-10T05:33:52;7.20;;;4.10;;
68910;SDS011;55953;51.650;-0.522;2023-05-10T05:36:20;10.30;;;4.70;;
68910;SDS011;55953;51.650;-0.522;2023-05-10T05:38:48;13.20;;;5.00;;
68910;SDS011;55953;51.650;-0.522;2023-05-10T05:41:16;12.90;;;5.20;;
68910;SDS011;55953;51.650;-0.522;2023-05-10T05:43:44;9.40;;;4.80;;
68910;SDS011;55953;51.650;-0.522;2023-05-10T05:46:12;9.20;;;4.20;;
68910;SDS011;55953;51.650;-0.522;2023-05-10T05:48:39;11.30;;;4.50;;
68910;SDS011;55953;51.650;-0.522;2023-05-10T05:51:07;9.90;;;4.70;;
68910;SDS011;55953;51.650;-0.522;2023-05-10T05:53:35;8.90;;;4.40;;
68910;SDS011;55953;51.650;-0.522;2023-05-10T05:56:04;11.90;;;4.30;;
68910;SDS011;55953;51.650;-0.522;2023-05-10T05:58:32;11.30;;;3.70;;
68910;SDS011;55953;51.650;-0.522;2023-05-10T06:00:59;10.40;;;3.90;;
68910;SDS011;55953;51.650;-0.522;2023-05-10T06:03:27;9.10;;;3.90;;
68910;SDS011;55953;51.650;-0.522;2023-05-10T06:05:55;8.50;;;3.50;;
68910;SDS011;55953;51.650;-0.522;2023-05-10T06:08:23;7.60;;;3.40;;
68910;SDS011;55953;51.650;-0.522;2023-05-10T06:10:51;9.10;;;3.60;;
68910;SDS011;55953;51.650;-0.522;2023-05-10T06:13:18;8.10;;;3.20;;
68910;SDS011;55953;51.650;-0.522;2023-05-10T06:15:46;9.30;;;3.20;;
68910;SDS011;55953;51.650;-0.522;2023-05-10T06:18:14;7.10;;;2.60;;
68910;SDS011;55953;51.650;-0.522;2023-05-10T06:20:42;8.90;;;2.90;;
68910;SDS011;55953;51.650;-0.522;2023-05-10T06:23:10;8.00;;;3.10;;
68910;SDS011;55953;51.650;-0.522;2023-05-10T06:25:38;6.30;;;2.30;;
68910;SDS011;55953;51.650;-0.522;2023-05-10T06:28:06;8.30;;;2.80;;
68910;SDS011;55953;51.650;-0.522;2023-05-10T06:30:35;9.50;;;2.60;;
68910;SDS011;55953;51.650;-0.522;2023-05-10T06:33:04;7.30;;;2.60;;
68910;SDS011;55953;51.650;-0.522;2023-05-10T06:35:33;5.40;;;2.20;;
68910;SDS011;55953;51.650;-0.522;2023-05-10T06:38:02;10.60;;;2.60;;
68910;SDS011;55953;51.650;-0.522;2023-05-10T06:40:30;10.90;;;2.90;;
68910;SDS011;55953;51.650;-0.522;2023-05-10T06:42:57;6.50;;;2.20;;
68910;SDS011;55953;51.650;-0.522;2023-05-10T06:45:25;5.90;;;2.20;;
68910;SDS011;55953;51.650;-0.522;2023-05-10T06:47:53;7.60;;;2.20;;
68910;SDS011;55953;51.650;-0.522;2023-05-10T06:50:21;6.30;;;1.70;;
68910;SDS011;55953;51.650;-0.522;2023-05-10T06:52:49;7.90;;;2.30;;
68910;SDS011;55953;51.650;-0.522;2023-05-10T06:55:19;9.00;;;2.20;;
68910;SDS011;55953;51.650;-0.522;2023-05-10T06:57:47;8.80;;;2.10;;
68910;SDS011;55953;51.650;-0.522;2023-05-10T07:00:15;7.90;;;2.20;;
68910;SDS011;55953;51.650;-0.522;2023-05-10T07:02:44;6.50;;;2.50;;
68910;SDS011;55953;51.650;-0.522;2023-05-10T07:05:13;10.30;;;2.20;;
68910;SDS011;55953;51.650;-0.522;2023-05-10T07:07:41;9.50;;;2.20;;
68910;SDS011;55953;51.650;-0.522;2023-05-10T07:10:10;5.40;;;2.10;;
68910;SDS011;55953;51.650;-0.522;2023-05-10T07:12:38;8.60;;;2.20;;
68910;SDS011;55953;51.650;-0.522;2023-05-10T07:15:06;6.10;;;2.10;;
68910;SDS011;55953;51.650;-0.522;2023-05-10T07:17:35;8.00;;;2.10;;
68910;SDS011;55953;51.650;-0.522;2023-05-10T07:20:03;8.70;;;2.20;;
68910;SDS011;55953;51.650;-0.522;2023-05-10T07:22:31;9.60;;;2.10;;
68910;SDS011;55953;51.650;-0.522;2023-05-10T07:24:59;8.80;;;2.10;;
68910;SDS011;55953;51.650;-0.522;2023-05-10T07:27:27;8.40;;;2.30;;
68910;SDS011;55953;51.650;-0.522;2023-05-10T07:29:55;7.40;;;2.50;;
68910;SDS011;55953;51.650;-0.522;2023-05-10T07:32:23;5.60;;;2.30;;
68910;SDS011;55953;51.650;-0.522;2023-05-10T07:34:52;9.40;;;2.60;;
68910;SDS011;55953;51.650;-0.522;2023-05-10T07:37:19;5.10;;;1.70;;
68910;SDS011;55953;51.650;-0.522;2023-05-10T07:39:47;7.30;;;2.00;;
68910;SDS011;55953;51.650;-0.522;2023-05-10T07:42:15;8.10;;;2.20;;
68910;SDS011;55953;51.650;-0.522;2023-05-10T07:44:43;6.60;;;2.10;;
68910;SDS011;55953;51.650;-0.522;2023-05-10T07:47:11;6.60;;;2.40;;
68910;SDS011;55953;51.650;-0.522;2023-05-10T07:49:39;8.30;;;2.20;;
68910;SDS011;55953;51.650;-0.522;2023-05-10T07:52:06;8.10;;;2.60;;
68910;SDS011;55953;51.650;-0.522;2023-05-10T07:54:34;6.50;;;2.10;;
68910;SDS011;55953;51.650;-0.522;2023-05-10T07:57:02;8.00;;;2.70;;
68910;SDS011;55953;51.650;-0.522;2023-05-10T07:59:30;6.40;;;2.20;;
68910;SDS011;55953;51.650;-0.522;2023-05-10T08:01:58;7.70;;;2.50;;
68910;SDS011;55953;51.650;-0.522;2023-05-10T08:04:26;4.60;;;2.40;;
68910;SDS011;55953;51.650;-0.522;2023-05-10T08:06:54;8.60;;;3.20;;
68910;SDS011;55953;51.650;-0.522;2023-05-10T08:09:22;5.70;;;2.20;;
68910;SDS011;55953;51.650;-0.522;2023-05-10T08:11:51;10.20;;;2.60;;
68910;SDS011;55953;51.650;-0.522;2023-05-10T08:14:19;6.90;;;2.50;;
68910;SDS011;55953;51.650;-0.522;2023-05-10T08:16:47;7.30;;;2.40;;
68910;SDS011;55953;51.650;-0.522;2023-05-10T08:19:15;8.30;;;2.80;;
68910;SDS011;55953;51.650;-0.522;2023-05-10T08:21:47;7.30;;;2.50;;
68910;SDS011;55953;51.650;-0.522;2023-05-10T08:24:15;8.90;;;2.80;;
68910;SDS011;55953;51.650;-0.522;2023-05-10T08:26:43;6.00;;;2.30;;
68910;SDS011;55953;51.650;-0.522;2023-05-10T08:29:10;6.70;;;3.10;;
68910;SDS011;55953;51.650;-0.522;2023-05-10T08:31:39;7.50;;;2.80;;
68910;SDS011;55953;51.650;-0.522;2023-05-10T08:34:07;11.00;;;3.50;;
68910;SDS011;55953;51.650;-0.522;2023-05-10T08:36:35;11.00;;;3.30;;
68910;SDS011;55953;51.650;-0.522;2023-05-10T08:39:03;11.40;;;3.80;;
68910;SDS011;55953;51.650;-0.522;2023-05-10T08:41:35;11.70;;;3.80;;
68910;SDS011;55953;51.650;-0.522;2023-05-10T08:44:07;8.30;;;3.30;;
68910;SDS011;55953;51.650;-0.522;2023-05-10T08:46:36;9.00;;;3.60;;
68910;SDS011;55953;51.650;-0.522;2023-05-10T08:49:13;7.80;;;2.90;;
68910;SDS011;55953;51.650;-0.522;2023-05-10T08:51:54;8.50;;;3.70;;
68910;SDS011;55953;51.650;-0.522;2023-05-10T08:54:24;7.70;;;2.80;;
68910;SDS011;55953;51.650;-0.522;2023-05-10T08:56:52;13.00;;;4.10;;
68910;SDS011;55953;51.650;-0.522;2023-05-10T08:59:20;9.40;;;3.70;;
68910;SDS011;55953;51.650;-0.522;2023-05-10T09:01:49;9.00;;;4.10;;
68910;SDS011;55953;51.650;-0.522;2023-05-10T09:04:19;7.90;;;3.50;;
68910;SDS011;55953;51.650;-0.522;2023-05-10T09:06:48;9.30;;;3.70;;
68910;SDS011;55953;51.650;-0.522;2023-05-10T09:09:17;10.40;;;3.90;;
68910;SDS011;55953;51.650;-0.522;2023-05-10T09:11:47;12.00;;;3.90;;
68910;SDS011;55953;51.650;-0.522;2023-05-10T09:14:15;11.00;;;4.30;;
68910;SDS011;55953;51.650;-0.522;2023-05-10T09:16:44;10.90;;;4.30;;
68910;SDS011;55953;51.650;-0.522;2023-05-10T09:19:13;9.50;;;3.70;;
68910;SDS011;55953;51.650;-0.522;2023-05-10T09:21:41;7.30;;;3.30;;
68910;SDS011;55953;51.650;-0.522;2023-05-10T09:24:09;10.20;;;3.90;;
68910;SDS011;55953;51.650;-0.522;2023-05-10T09:26:46;8.10;;;3.50;;
68910;SDS011;55953;51.650;-0.522;2023-05-10T09:29:18;7.10;;;2.80;;
68910;SDS011;55953;51.650;-0.522;2023-05-10T09:31:50;10.30;;;3.80;;
68910;SDS011;55953;51.650;-0.522;2023-05-10T09:34:28;10.10;;;3.70;;
68910;SDS011;55953;51.650;-0.522;2023-05-10T09:37:00;8.90;;;3.20;;
68910;SDS011;55953;51.650;-0.522;2023-05-10T09:39:31;10.30;;;3.40;;
68910;SDS011;55953;51.650;-0.522;2023-05-10T09:42:03;8.20;;;2.90;;
68910;SDS011;55953;51.650;-0.522;2023-05-10T09:44:35;7.90;;;3.10;;
68910;SDS011;55953;51.650;-0.522;2023-05-10T09:47:03;6.50;;;2.60;;
68910;SDS011;55953;51.650;-0.522;2023-05-10T09:49:32;6.70;;;2.80;;
68910;SDS011;55953;51.650;-0.522;2023-05-10T09:52:05;10.00;;;3.60;;
68910;SDS011;55953;51.650;-0.522;2023-05-10T09:54:34;8.60;;;3.10;;
68910;SDS011;55953;51.650;-0.522;2023-05-10T09:57:03;7.60;;;2.80;;
68910;SDS011;55953;51.650;-0.522;2023-05-10T09:59:33;8.60;;;3.00;;
68910;SDS011;55953;51.650;-0.522;2023-05-10T10:02:02;6.70;;;2.80;;
68910;SDS011;55953;51.650;-0.522;2023-05-10T10:04:31;9.30;;;2.80;;
68910;SDS011;55953;51.650;-0.522;2023-05-10T10:07:03;7.10;;;2.90;;
68910;SDS011;55953;51.650;-0.522;2023-05-10T10:09:33;7.30;;;2.60;;
68910;SDS011;55953;51.650;-0.522;2023-05-10T10:12:02;10.00;;;3.10;;
68910;SDS011;55953;51.650;-0.522;2023-05-10T10:14:31;6.60;;;3.20;;
68910;SDS011;55953;51.650;-0.522;2023-05-10T10:17:00;8.30;;;2.20;;
68910;SDS011;55953;51.650;-0.522;2023-05-10T10:19:33;5.80;;;2.20;;
68910;SDS011;55953;51.650;-0.522;2023-05-10T10:22:03;5.00;;;1.90;;
68910;SDS011;55953;51.650;-0.522;2023-05-10T10:24:32;6.30;;;2.20;;
68910;SDS011;55953;51.650;-0.522;2023-05-10T10:27:07;9.10;;;2.60;;
68910;SDS011;55953;51.650;-0.522;2023-05-10T10:29:47;5.60;;;2.10;;
68910;SDS011;55953;51.650;-0.522;2023-05-10T10:32:33;8.10;;;2.20;;
68910;SDS011;55953;51.650;-0.522;2023-05-10T10:35:09;4.90;;;2.00;;
68910;SDS011;55953;51.650;-0.522;2023-05-10T10:37:44;5.20;;;1.80;;
68910;SDS011;55953;51.650;-0.522;2023-05-10T10:40:23;4.60;;;1.80;;
68910;SDS011;55953;51.650;-0.522;2023-05-10T10:42:54;5.40;;;2.20;;
68910;SDS011;55953;51.650;-0.522;2023-05-10T10:45:24;7.70;;;1.80;;
68910;SDS011;55953;51.650;-0.522;2023-05-10T10:48:20;4.30;;;1.70;;
68910;SDS011;55953;51.650;-0.522;2023-05-10T10:50:56;6.50;;;1.80;;
68910;SDS011;55953;51.650;-0.522;2023-05-10T10:53:28;4.20;;;1.30;;
68910;SDS011;55953;51.650;-0.522;2023-05-10T10:56:05;5.10;;;1.80;;
68910;SDS011;55953;51.650;-0.522;2023-05-10T10:58:37;5.30;;;1.60;;
68910;SDS011;55953;51.650;-0.522;2023-05-10T11:01:17;4.30;;;1.70;;
68910;SDS011;55953;51.650;-0.522;2023-05-10T11:04:17;4.80;;;1.70;;
68910;SDS011;55953;51.650;-0.522;2023-05-10T11:06:46;7.30;;;1.80;;
68910;SDS011;55953;51.650;-0.522;2023-05-10T11:09:14;5.80;;;1.80;;
68910;SDS011;55953;51.650;-0.522;2023-05-10T11:11:52;5.00;;;1.80;;
68910;SDS011;55953;51.650;-0.522;2023-05-10T11:14:23;5.00;;;1.70;;
68910;SDS011;55953;51.650;-0.522;2023-05-10T11:16:51;3.00;;;1.30;;
68910;SDS011;55953;51.650;-0.522;2023-05-10T11:19:19;4.70;;;1.80;;
68910;SDS011;55953;51.650;-0.522;2023-05-10T11:24:56;6.40;;;1.70;;
68910;SDS011;55953;51.650;-0.522;2023-05-10T11:27:26;7.30;;;2.00;;
68910;SDS011;55953;51.650;-0.522;2023-05-10T11:29:53;9.90;;;2.60;;
68910;SDS011;55953;51.650;-0.522;2023-05-10T11:32:22;9.90;;;2.90;;
68910;SDS011;55953;51.650;-0.522;2023-05-10T11:34:50;9.00;;;2.50;;
68910;SDS011;55953;51.650;-0.522;2023-05-10T11:37:18;6.40;;;2.70;;
68910;SDS011;55953;51.650;-0.522;2023-05-10T11:39:46;7.90;;;2.70;;
68910;SDS011;55953;51.650;-0.522;2023-05-10T11:42:18;5.50;;;2.60;;
68910;SDS011;55953;51.650;-0.522;2023-05-10T11:44:47;6.50;;;2.70;;
68910;SDS011;55953;51.650;-0.522;2023-05-10T11:47:15;7.40;;;2.70;;
68910;SDS011;55953;51.650;-0.522;2023-05-10T11:49:44;6.60;;;2.70;;
68910;SDS011;55953;51.650;-0.522;2023-05-10T11:52:12;7.50;;;3.00;;
68910;SDS011;55953;51.650;-0.522;2023-05-10T11:54:54;6.00;;;2.70;;
68910;SDS011;55953;51.650;-0.522;2023-05-10T11:57:26;4.80;;;2.60;;
68910;SDS011;55953;51.650;-0.522;2023-05-10T11:59:56;6.40;;;2.70;;
68910;SDS011;55953;51.650;-0.522;2023-05-10T12:02:25;5.30;;;2.50;;
68910;SDS011;55953;51.650;-0.522;2023-05-10T12:04:55;5.90;;;3.00;;
68910;SDS011;55953;51.650;-0.522;2023-05-10T12:07:25;11.30;;;3.30;;
68910;SDS011;55953;51.650;-0.522;2023-05-10T12:10:05;7.50;;;3.20;;
68910;SDS011;55953;51.650;-0.522;2023-05-10T12:12:41;7.00;;;3.20;;
68910;SDS011;55953;51.650;-0.522;2023-05-10T12:15:21;9.00;;;3.30;;
68910;SDS011;55953;51.650;-0.522;2023-05-10T12:17:50;5.60;;;2.50;;
68910;SDS011;55953;51.650;-0.522;2023-05-10T12:20:20;5.20;;;2.50;;
68910;SDS011;55953;51.650;-0.522;2023-05-10T12:22:52;4.80;;;2.60;;
68910;SDS011;55953;51.650;-0.522;2023-05-10T12:25:23;8.30;;;3.20;;
68910;SDS011;55953;51.650;-0.522;2023-05-10T12:27:58;6.90;;;2.80;;
68910;SDS011;55953;51.650;-0.522;2023-05-10T12:30:32;6.70;;;2.80;;
68910;SDS011;55953;51.650;-0.522;2023-05-10T12:33:12;7.90;;;3.00;;
68910;SDS011;55953;51.650;-0.522;2023-05-10T12:35:52;9.10;;;3.10;;
68910;SDS011;55953;51.650;-0.522;2023-05-10T12:38:25;7.90;;;3.30;;
68910;SDS011;55953;51.650;-0.522;2023-05-10T12:43:33;9.00;;;3.50;;
68910;SDS011;55953;51.650;-0.522;2023-05-10T12:46:13;8.10;;;3.20;;
68910;SDS011;55953;51.650;-0.522;2023-05-10T12:48:43;8.10;;;3.10;;
68910;SDS011;55953;51.650;-0.522;2023-05-10T12:51:12;5.30;;;2.40;;
68910;SDS011;55953;51.650;-0.522;2023-05-10T12:53:43;5.90;;;2.30;;
68910;SDS011;55953;51.650;-0.522;2023-05-10T12:56:16;4.40;;;2.30;;
68910;SDS011;55953;51.650;-0.522;2023-05-10T12:58:44;7.80;;;3.40;;
68910;SDS011;55953;51.650;-0.522;2023-05-10T13:01:15;7.70;;;3.30;;
68910;SDS011;55953;51.650;-0.522;2023-05-10T13:03:43;6.10;;;2.70;;
68910;SDS011;55953;51.650;-0.522;2023-05-10T13:06:13;9.10;;;3.30;;
68910;SDS011;55953;51.650;-0.522;2023-05-10T13:08:41;7.30;;;3.10;;
68910;SDS011;55953;51.650;-0.522;2023-05-10T13:11:08;8.20;;;2.90;;
68910;SDS011;55953;51.650;-0.522;2023-05-10T13:13:36;5.70;;;2.50;;
68910;SDS011;55953;51.650;-0.522;2023-05-10T13:16:05;6.70;;;2.30;;
68910;SDS011;55953;51.650;-0.522;2023-05-10T13:18:33;7.40;;;2.60;;
68910;SDS011;55953;51.650;-0.522;2023-05-10T13:21:01;6.60;;;2.50;;
68910;SDS011;55953;51.650;-0.522;2023-05-10T13:23:31;5.90;;;2.20;;
68910;SDS011;55953;51.650;-0.522;2023-05-10T13:25:59;5.40;;;2.50;;
68910;SDS011;55953;51.650;-0.522;2023-05-10T13:28:27;8.90;;;2.20;;
68910;SDS011;55953;51.650;-0.522;2023-05-10T13:30:55;4.70;;;1.90;;
68910;SDS011;55953;51.650;-0.522;2023-05-10T13:33:23;4.60;;;1.80;;
68910;SDS011;55953;51.650;-0.522;2023-05-10T13:35:50;5.20;;;1.60;;
68910;SDS011;55953;51.650;-0.522;2023-05-10T13:40:49;2.80;;;1.30;;
68910;SDS011;55953;51.650;-0.522;2023-05-10T13:43:20;4.10;;;1.50;;
68910;SDS011;55953;51.650;-0.522;2023-05-10T13:45:48;2.70;;;1.40;;
68910;SDS011;55953;51.650;-0.522;2023-05-10T13:48:15;2.70;;;1.30;;
68910;SDS011;55953;51.650;-0.522;2023-05-10T13:50:43;4.90;;;1.50;;
68910;SDS011;55953;51.650;-0.522;2023-05-10T13:53:11;4.70;;;2.00;;
68910;SDS011;55953;51.650;-0.522;2023-05-10T13:55:39;4.60;;;1.70;;
68910;SDS011;55953;51.650;-0.522;2023-05-10T13:58:07;3.00;;;1.50;;
68910;SDS011;55953;51.650;-0.522;2023-05-10T14:00:35;3.60;;;1.40;;
68910;SDS011;55953;51.650;-0.522;2023-05-10T14:03:03;3.30;;;1.50;;
68910;SDS011;55953;51.650;-0.522;2023-05-10T14:05:32;3.90;;;1.40;;
68910;SDS011;55953;51.650;-0.522;2023-05-10T14:08:00;5.00;;;1.40;;
68910;SDS011;55953;51.650;-0.522;2023-05-10T14:10:28;3.00;;;1.40;;
68910;SDS011;55953;51.650;-0.522;2023-05-10T14:12:56;2.90;;;1.40;;
68910;SDS011;55953;51.650;-0.522;2023-05-10T14:15:24;4.10;;;1.40;;
68910;SDS011;55953;51.650;-0.522;2023-05-10T14:17:51;3.60;;;1.20;;
68910;SDS011;55953;51.650;-0.522;2023-05-10T14:20:19;6.60;;;2.10;;
68910;SDS011;55953;51.650;-0.522;2023-05-10T14:22:47;5.10;;;1.40;;
68910;SDS011;55953;51.650;-0.522;2023-05-10T14:25:15;3.50;;;1.50;;
68910;SDS011;55953;51.650;-0.522;2023-05-10T14:27:43;3.50;;;1.70;;
68910;SDS011;55953;51.650;-0.522;2023-05-10T14:30:11;6.10;;;2.00;;
68910;SDS011;55953;51.650;-0.522;2023-05-10T14:32:39;5.30;;;1.70;;
68910;SDS011;55953;51.650;-0.522;2023-05-10T14:35:08;3.50;;;1.60;;
68910;SDS011;55953;51.650;-0.522;2023-05-10T14:37:39;4.80;;;1.80;;
68910;SDS011;55953;51.650;-0.522;2023-05-10T14:40:07;4.90;;;1.50;;
68910;SDS011;55953;51.650;-0.522;2023-05-10T14:42:36;5.00;;;1.70;;
68910;SDS011;55953;51.650;-0.522;2023-05-10T14:45:05;5.70;;;1.70;;
68910;SDS011;55953;51.650;-0.522;2023-05-10T14:47:33;4.50;;;1.70;;
68910;SDS011;55953;51.650;-0.522;2023-05-10T14:50:00;4.50;;;1.70;;
68910;SDS011;55953;51.650;-0.522;2023-05-10T14:52:29;4.10;;;1.90;;
68910;SDS011;55953;51.650;-0.522;2023-05-10T14:55:00;5.00;;;1.70;;
68910;SDS011;55953;51.650;-0.522;2023-05-10T14:57:28;6.80;;;2.40;;
68910;SDS011;55953;51.650;-0.522;2023-05-10T14:59:57;3.30;;;1.60;;
68910;SDS011;55953;51.650;-0.522;2023-05-10T15:02:25;4.90;;;1.70;;
68910;SDS011;55953;51.650;-0.522;2023-05-10T15:04:53;4.50;;;1.80;;
68910;SDS011;55953;51.650;-0.522;2023-05-10T15:07:22;6.20;;;1.60;;
68910;SDS011;55953;51.650;-0.522;2023-05-10T15:09:50;5.20;;;1.90;;
68910;SDS011;55953;51.650;-0.522;2023-05-10T15:12:19;5.90;;;1.80;;